Time;durP1;ratioP1;P1;durP2;ratioP2;P2;SDS_P1;SDS_P2;PMS_P1;PMS_P2;Temp;Humidity;BMP_temperature;BMP_pressure;BME280_temperature;BME280_humidity;BME280_pressure;Samples;Min_cycle;Max_cycle;Signal;HPM_P1;HPM_P2
2020/12/02 00:02:29;;;;;;;25.63;16.37;;;4.90;94.30;;;4.40;88.81;98219.13;5034625;28;20686;-73
2020/12/02 00:05:01;;;;;;;26.67;15.40;;;4.90;94.30;;;4.42;89.13;98226.81;5032779;28;20634;-73
2020/12/02 00:07:29;;;;;;;28.43;15.83;;;4.90;94.20;;;4.45;88.82;98218.94;5025320;28;20644;-73
2020/12/02 00:09:58;;;;;;;28.13;15.53;;;4.90;94.20;;;4.46;89.11;98224.03;5036231;28;20683;-73
2020/12/02 00:12:26;;;;;;;27.17;15.53;;;4.90;94.10;;;4.47;89.67;98224.88;5019275;28;20623;-73
2020/12/02 00:14:54;;;;;;;24.90;15.53;;;5.00;94.10;;;4.50;89.56;98215.25;5034277;28;20683;-73
2020/12/02 00:17:22;;;;;;;30.70;17.10;;;5.00;94.10;;;4.52;88.58;98218.59;5075150;28;20668;-74
2020/12/02 00:19:50;;;;;;;26.27;15.53;;;5.00;94.00;;;4.53;89.33;98222.88;5046466;28;20633;-73
2020/12/02 00:22:21;;;;;;;25.73;14.90;;;5.00;93.90;;;4.53;88.14;98230.63;5032363;28;21013;-73
2020/12/02 00:24:50;;;;;;;24.07;14.33;;;5.00;93.80;;;4.55;88.95;98228.81;5036019;28;20618;-73
2020/12/02 00:27:22;;;;;;;22.93;14.07;;;5.00;93.90;;;4.59;88.68;98214.88;5053753;28;21172;-73
2020/12/02 00:29:50;;;;;;;19.97;12.43;;;5.10;94.00;;;4.63;88.64;98226.75;5044024;28;21218;-73
2020/12/02 00:32:27;;;;;;;21.17;13.37;;;5.10;94.00;;;4.65;88.82;98222.34;5013854;28;20606;-74
2020/12/02 00:34:55;;;;;;;21.20;12.90;;;5.10;93.90;;;4.67;88.95;98222.28;5018492;28;20975;-73
2020/12/02 00:37:24;;;;;;;20.37;12.63;;;5.10;93.90;;;4.69;88.50;98227.31;5038693;28;20772;-73
2020/12/02 00:39:52;;;;;;;23.47;13.20;;;5.20;93.90;;;4.69;89.05;98231.63;5037316;28;20660;-74
2020/12/02 00:42:22;;;;;;;19.50;12.50;;;5.10;93.80;;;4.69;88.60;98224.75;5032222;28;20679;-73
2020/12/02 00:44:51;;;;;;;17.50;11.10;;;5.10;93.70;;;4.71;88.43;98224.69;5048903;28;20600;-73
2020/12/02 00:47:23;;;;;;;17.50;10.80;;;5.20;93.70;;;4.70;89.02;98217.81;5033294;28;20668;-73
2020/12/02 00:49:53;;;;;;;19.00;11.20;;;5.20;93.80;;;4.68;88.53;98217.88;5033033;28;20656;-73
2020/12/02 00:52:22;;;;;;;17.60;11.00;;;5.20;93.90;;;4.70;88.22;98212.66;5042457;28;20636;-73
2020/12/02 00:54:50;;;;;;;20.50;11.30;;;5.20;93.90;;;4.71;88.86;98210.00;5076028;28;20636;-74
2020/12/02 00:57:23;;;;;;;18.80;11.43;;;5.20;93.90;;;4.72;88.71;98209.13;5035214;28;20651;-73
2020/12/02 00:59:54;;;;;;;19.53;11.20;;;5.20;93.80;;;4.75;88.98;98205.53;5037457;28;20625;-74
2020/12/02 01:02:34;;;;;;;19.70;11.33;;;5.20;93.80;;;4.76;88.10;98204.66;5041340;28;20625;-74
2020/12/02 01:05:05;;;;;;;19.10;10.50;;;5.20;93.70;;;4.78;88.36;98202.81;5032028;28;20660;-73
2020/12/02 01:07:33;;;;;;;17.50;10.63;;;5.20;93.70;;;4.77;89.04;98212.31;5032170;28;20625;-74
2020/12/02 01:10:00;;;;;;;18.00;10.57;;;5.20;93.70;;;4.73;87.96;98208.19;5031223;28;20629;-73
2020/12/02 01:12:28;;;;;;;19.43;10.87;;;5.20;93.60;;;4.74;88.87;98206.47;5036590;28;20963;-73
2020/12/02 01:14:56;;;;;;;20.43;11.13;;;5.20;93.70;;;4.74;88.06;98214.22;5033183;28;20617;-74
2020/12/02 01:17:23;;;;;;;17.90;10.40;;;5.20;93.70;;;4.76;88.10;98209.81;5031202;28;21184;-74
2020/12/02 01:19:51;;;;;;;14.27;9.87;;;5.20;93.70;;;4.77;88.72;98206.34;5030191;28;20630;-73
2020/12/02 01:22:25;;;;;;;17.40;11.30;;;5.20;93.70;;;4.75;87.92;98201.22;5032946;28;20676;-73
2020/12/02 01:24:58;;;;;;;24.33;12.67;;;5.20;93.70;;;4.78;88.76;98206.25;5024150;28;20628;-74
2020/12/02 01:27:34;;;;;;;20.50;12.27;;;5.30;93.80;;;4.78;88.34;98208.84;5048653;28;20624;-73
2020/12/02 01:30:02;;;;;;;20.03;11.23;;;5.30;93.80;;;4.79;88.61;98222.59;5044757;28;21078;-74
2020/12/02 01:32:29;;;;;;;19.83;11.77;;;5.30;93.70;;;4.80;88.77;98219.13;5038341;28;20986;-73
2020/12/02 01:34:56;;;;;;;20.40;11.87;;;5.30;93.70;;;4.79;88.36;98213.09;5038465;28;20679;-74
2020/12/02 01:37:34;;;;;;;21.03;11.73;;;5.20;93.60;;;4.77;88.79;98212.31;5047002;28;20711;-74
2020/12/02 01:40:13;;;;;;;22.30;12.47;;;5.30;93.60;;;4.67;87.61;98207.63;5037625;28;21199;-74
2020/12/02 01:42:43;;;;;;;20.80;11.60;;;5.20;93.50;;;4.69;88.41;98204.09;5033264;28;20624;-73
2020/12/02 01:45:20;;;;;;;21.97;13.17;;;5.20;93.50;;;4.63;88.24;98200.06;5031931;28;20645;-73
2020/12/02 01:48:02;;;;;;;21.93;11.73;;;5.10;93.40;;;4.60;88.18;98198.50;5031737;28;20616;-74
2020/12/02 01:50:39;;;;;;;20.33;11.93;;;5.10;93.40;;;4.53;87.64;98204.81;5031410;28;20668;-73
2020/12/02 01:53:15;;;;;;;24.20;12.30;;;5.00;93.50;;;4.55;88.00;98200.41;5069788;28;20625;-74
2020/12/02 01:55:48;;;;;;;20.07;11.40;;;5.10;93.60;;;4.50;88.42;98202.34;5040705;28;20787;-73
2020/12/02 01:58:30;;;;;;;22.67;11.90;;;5.00;93.60;;;4.49;88.41;98207.59;5074034;28;20640;-74
2020/12/02 02:01:07;;;;;;;23.70;12.47;;;5.00;93.60;;;4.46;88.64;98202.53;5030460;28;21065;-73
2020/12/02 02:03:38;;;;;;;25.03;13.57;;;5.00;93.70;;;4.44;88.43;98200.03;5038651;28;20628;-73
2020/12/02 02:06:13;;;;;;;24.87;13.63;;;5.00;93.70;;;4.40;87.91;98203.63;5037319;28;21171;-74
2020/12/02 02:08:42;;;;;;;20.67;12.70;;;4.90;93.70;;;4.37;88.05;98197.78;5026062;28;20648;-73
2020/12/02 02:11:15;;;;;;;24.30;13.60;;;4.90;93.80;;;4.36;89.44;98194.38;5038476;28;20695;-73
2020/12/02 02:14:23;;;;;;;24.00;12.77;;;4.90;93.80;;;4.21;89.28;98192.41;5033017;28;21196;-74
2020/12/02 02:16:50;;;;;;;20.80;12.00;;;4.80;94.10;;;4.22;90.16;98194.13;5029383;28;20680;-73
2020/12/02 02:19:22;;;;;;;20.60;12.40;;;4.70;94.10;;;4.11;88.83;98184.31;5032075;28;20679;-73
2020/12/02 02:21:52;;;;;;;21.50;12.20;;;4.60;94.10;;;4.00;90.79;98191.63;5015716;28;20646;-73
2020/12/02 02:24:20;;;;;;;22.97;12.87;;;4.50;94.40;;;4.05;90.49;98189.72;5071673;28;20711;-73
2020/12/02 02:26:52;;;;;;;22.97;13.63;;;4.50;94.50;;;3.96;89.81;98198.66;5029792;28;20679;-73
2020/12/02 02:29:23;;;;;;;20.50;13.73;;;4.50;94.50;;;3.90;89.95;98195.50;5035164;28;20698;-73
2020/12/02 02:31:57;;;;;;;21.83;12.17;;;4.40;94.60;;;3.88;89.91;98194.72;5046709;28;20636;-74
2020/12/02 02:34:26;;;;;;;20.70;13.50;;;4.40;94.70;;;3.77;90.35;98189.13;5033796;28;20690;-74
2020/12/02 02:36:54;;;;;;;21.20;12.80;;;4.30;94.60;;;3.82;90.03;98192.41;5037265;28;21013;-74
2020/12/02 02:39:22;;;;;;;19.97;11.50;;;4.30;94.80;;;3.86;90.41;98184.47;5038475;28;20648;-73
2020/12/02 02:41:56;;;;;;;21.50;12.70;;;4.30;95.10;;;3.77;89.94;98179.69;5040225;28;20647;-73
2020/12/02 02:44:24;;;;;;;20.17;11.40;;;4.30;94.50;;;3.80;89.48;98181.28;5045061;28;20678;-73
2020/12/02 02:46:52;;;;;;;19.40;11.00;;;4.30;94.40;;;3.80;89.76;98183.84;5025778;28;20649;-73
2020/12/02 02:49:20;;;;;;;17.27;10.60;;;4.30;94.50;;;3.81;89.84;98180.38;5037458;28;20683;-73
2020/12/02 02:51:48;;;;;;;20.27;11.43;;;4.30;94.40;;;3.81;89.60;98177.81;5035075;28;20687;-73
2020/12/02 02:54:16;;;;;;;19.43;12.07;;;4.30;94.50;;;3.84;89.88;98180.28;5037452;28;20678;-74
2020/12/02 02:56:43;;;;;;;16.93;11.87;;;4.30;94.50;;;3.87;89.58;98177.56;5032922;28;20661;-74
2020/12/02 02:59:12;;;;;;;19.00;11.50;;;4.40;94.50;;;3.90;90.07;98174.88;5040341;28;20625;-73
2020/12/02 03:01:43;;;;;;;16.97;10.50;;;4.40;94.30;;;3.91;89.73;98167.06;5022607;28;20641;-73
2020/12/02 03:04:11;;;;;;;17.20;10.23;;;4.40;94.20;;;3.98;88.75;98175.38;5018553;28;20626;-73
2020/12/02 03:06:38;;;;;;;16.90;10.20;;;4.40;94.20;;;3.96;88.74;98167.69;5033194;28;21164;-73
2020/12/02 03:09:06;;;;;;;14.73;10.10;;;4.40;93.60;;;4.00;88.14;98168.41;5046535;28;20689;-73
2020/12/02 03:11:34;;;;;;;15.50;9.90;;;4.50;93.70;;;4.07;87.88;98168.09;5030898;28;20634;-73
2020/12/02 03:14:03;;;;;;;15.80;10.33;;;4.50;93.70;;;4.11;87.96;98171.41;5047703;28;20628;-73
2020/12/02 03:16:39;;;;;;;15.93;10.10;;;4.60;93.70;;;4.06;87.73;98163.00;5045508;28;20703;-73
2020/12/02 03:19:14;;;;;;;17.17;10.57;;;4.60;93.50;;;4.03;88.11;98165.69;5034954;28;20609;-73
2020/12/02 03:21:41;;;;;;;15.10;9.93;;;4.50;93.40;;;4.05;88.69;98169.06;5019726;28;20990;-73
2020/12/02 03:24:10;;;;;;;15.53;9.70;;;4.60;93.50;;;4.01;88.51;98167.50;5031047;28;20660;-73
2020/12/02 03:26:38;;;;;;;13.93;9.57;;;4.50;93.30;;;3.92;87.40;98167.88;5037441;28;20652;-73
2020/12/02 03:29:07;;;;;;;15.93;10.07;;;4.50;93.20;;;3.96;88.09;98169.44;5051021;28;20632;-73
2020/12/02 03:31:36;;;;;;;17.93;11.33;;;4.50;93.40;;;3.99;87.88;98172.72;5023054;28;21242;-74
2020/12/02 03:34:05;;;;;;;14.53;9.53;;;4.50;93.40;;;4.02;87.75;98171.78;5033709;28;20633;-73
2020/12/02 03:36:33;;;;;;;14.47;9.57;;;4.50;93.40;;;3.96;87.01;98165.13;5019366;28;20656;-73
2020/12/02 03:39:00;;;;;;;13.83;9.33;;;4.50;93.30;;;4.00;87.33;98164.09;5030343;28;20721;-74
2020/12/02 03:41:27;;;;;;;13.93;9.47;;;4.50;93.30;;;4.02;87.92;98166.63;5029587;28;21011;-73
2020/12/02 03:43:55;;;;;;;13.43;9.40;;;4.50;93.30;;;4.02;87.34;98169.19;5034775;28;20636;-73
2020/12/02 03:46:22;;;;;;;15.23;10.17;;;4.50;93.20;;;4.00;86.84;98168.41;5034700;28;20637;-73
2020/12/02 03:48:51;;;;;;;14.10;9.73;;;4.50;93.10;;;4.08;86.99;98168.94;5045930;28;20700;-73
2020/12/02 03:51:19;;;;;;;15.40;9.90;;;4.60;93.20;;;4.09;87.70;98176.63;5065270;28;20640;-73
2020/12/02 03:53:47;;;;;;;15.90;9.73;;;4.60;93.20;;;4.11;88.22;98167.06;5040960;28;20625;-73
2020/12/02 03:56:14;;;;;;;13.73;10.53;;;4.60;93.20;;;4.19;87.49;98169.34;5039877;28;20657;-73
2020/12/02 03:58:42;;;;;;;14.90;9.57;;;4.60;93.10;;;4.18;86.60;98177.97;5046537;28;20648;-73
2020/12/02 04:01:09;;;;;;;12.73;8.90;;;4.70;93.30;;;4.15;86.77;98173.78;5040327;28;20732;-73
2020/12/02 04:03:37;;;;;;;15.00;10.13;;;4.60;92.70;;;4.17;86.06;98171.97;5037057;28;21264;-73
2020/12/02 04:06:06;;;;;;;14.43;9.43;;;4.60;92.70;;;4.18;86.79;98176.25;5029152;28;20629;-73
2020/12/02 04:08:34;;;;;;;16.53;10.20;;;4.60;92.90;;;4.20;87.84;98173.59;5036662;28;20624;-73
2020/12/02 04:11:01;;;;;;;17.03;10.57;;;4.70;92.90;;;4.21;87.05;98165.78;5035759;28;20629;-73
2020/12/02 04:13:29;;;;;;;17.27;10.10;;;4.70;92.80;;;4.21;86.59;98166.63;5038071;28;20671;-73
2020/12/02 04:15:56;;;;;;;13.33;9.50;;;4.70;92.80;;;4.20;87.31;98160.69;5024320;28;21039;-73
2020/12/02 04:18:23;;;;;;;17.30;10.70;;;4.70;92.70;;;4.26;87.37;98169.84;5035469;28;20633;-73
2020/12/02 04:20:51;;;;;;;16.73;10.47;;;4.70;92.60;;;4.22;87.02;98160.56;5033864;28;20630;-73
2020/12/02 04:23:19;;;;;;;16.50;10.20;;;4.70;92.40;;;4.22;86.45;98168.31;5032162;28;20640;-73
2020/12/02 04:25:47;;;;;;;16.60;11.33;;;4.70;92.60;;;4.25;85.65;98177.66;5015999;28;20599;-73
2020/12/02 04:28:15;;;;;;;16.33;9.80;;;4.70;92.40;;;4.22;86.60;98170.88;5032759;28;20707;-73
2020/12/02 04:30:44;;;;;;;16.80;10.67;;;4.70;92.30;;;4.14;86.49;98171.28;5045852;28;20621;-73
2020/12/02 04:33:11;;;;;;;17.57;10.43;;;4.60;92.70;;;4.12;86.94;98166.19;5037327;28;22448;-72
2020/12/02 04:35:39;;;;;;;17.55;12.45;;;4.60;92.40;;;4.21;86.05;98165.78;5043573;28;21136;-73
2020/12/02 04:38:08;;;;;;;18.97;12.00;;;4.70;92.50;;;4.27;86.64;98162.94;5037352;28;20353;-73
2020/12/02 04:40:39;;;;;;;20.23;12.90;;;4.70;92.60;;;4.29;86.16;98167.13;5035172;28;21046;-73
2020/12/02 04:43:15;;;;;;;17.50;11.53;;;4.70;92.40;;;4.33;86.08;98160.94;5038230;28;20652;-73
2020/12/02 04:45:42;;;;;;;18.10;10.87;;;4.70;92.50;;;4.37;85.94;98162.47;5030692;28;20637;-73
2020/12/02 04:48:14;;;;;;;15.87;11.07;;;4.80;92.50;;;4.42;86.21;98164.84;5035334;28;20983;-73
2020/12/02 04:50:42;;;;;;;14.67;10.37;;;4.90;92.40;;;4.42;85.74;98163.13;5041585;28;20633;-73
2020/12/02 04:53:15;;;;;;;16.77;11.13;;;4.90;92.30;;;4.46;86.41;98163.81;5037372;28;21039;-73
2020/12/02 04:55:47;;;;;;;13.73;10.00;;;4.90;92.20;;;4.46;85.16;98169.00;5047333;28;20649;-73
2020/12/02 04:58:27;;;;;;;18.00;11.57;;;4.90;92.00;;;4.45;85.99;98157.84;5030828;28;20665;-73
2020/12/02 05:01:13;;;;;;;16.57;10.87;;;4.90;92.10;;;4.46;85.73;98159.50;5060340;28;20606;-73
2020/12/02 05:03:50;;;;;;;15.77;10.27;;;4.90;92.10;;;4.40;86.40;98157.16;5051212;28;20725;-73
2020/12/02 05:06:24;;;;;;;18.47;10.20;;;4.90;92.00;;;4.41;86.84;98158.84;5021796;28;20631;-73
2020/12/02 05:08:51;;;;;;;17.93;10.70;;;4.90;92.10;;;4.46;86.12;98164.66;5034188;28;20597;-72
2020/12/02 05:11:20;;;;;;;17.90;11.13;;;4.90;92.00;;;4.40;85.74;98167.50;5031576;28;21038;-73
2020/12/02 05:13:59;;;;;;;16.33;10.47;;;4.90;92.00;;;4.44;85.98;98157.91;5031577;28;20667;-73
2020/12/02 05:16:27;;;;;;;19.97;11.53;;;5.00;92.10;;;4.43;85.24;98161.38;5043206;28;20663;-73
2020/12/02 05:19:00;;;;;;;15.53;10.10;;;4.90;91.90;;;4.32;86.23;98159.25;5034502;28;20636;-73
2020/12/02 05:21:32;;;;;;;19.60;11.90;;;4.90;92.00;;;4.34;86.97;98162.59;5045371;28;20679;-73
2020/12/02 05:24:13;;;;;;;18.00;11.47;;;4.90;92.10;;;4.32;85.76;98169.56;5033246;28;20633;-73
2020/12/02 05:26:46;;;;;;;18.70;11.63;;;4.90;92.10;;;4.31;86.07;98167.88;5032998;28;20609;-73
2020/12/02 05:29:45;;;;;;;16.87;10.90;;;4.80;92.20;;;4.24;86.86;98170.81;5033716;28;20657;-73
2020/12/02 05:32:16;;;;;;;18.47;10.80;;;4.80;92.10;;;4.23;87.24;98174.28;5031437;28;20621;-73
2020/12/02 05:34:44;;;;;;;21.43;12.30;;;4.70;92.30;;;4.25;86.81;98175.06;5051468;28;20621;-72
2020/12/02 05:37:20;;;;;;;17.30;11.43;;;4.80;92.50;;;4.26;87.29;98169.00;5040775;28;20657;-73
2020/12/02 05:39:55;;;;;;;19.73;12.30;;;4.80;92.60;;;4.31;87.19;98170.47;5031497;28;20655;-73
2020/12/02 05:42:33;;;;;;;16.53;10.23;;;4.80;92.60;;;4.32;87.60;98174.75;5032460;28;20683;-73
2020/12/02 05:45:15;;;;;;;18.70;11.70;;;4.80;92.60;;;4.40;86.66;98177.00;5045317;28;20675;-73
2020/12/02 05:47:43;;;;;;;19.30;11.80;;;4.90;92.60;;;4.36;87.21;98175.44;5028370;28;20614;-73
2020/12/02 05:50:14;;;;;;;19.87;12.27;;;4.80;92.40;;;4.37;85.91;98167.63;5037482;28;20640;-73
2020/12/02 05:52:46;;;;;;;19.10;11.70;;;4.80;92.40;;;4.42;87.31;98173.44;5043013;28;20695;-73
2020/12/02 05:55:19;;;;;;;20.17;11.80;;;4.90;92.50;;;4.47;85.99;98174.09;5043899;28;20626;-74
2020/12/02 05:57:58;;;;;;;20.37;11.70;;;4.90;92.50;;;4.49;86.37;98176.59;5034573;28;20660;-73
2020/12/02 06:00:29;;;;;;;17.47;10.43;;;5.00;92.40;;;4.53;86.34;98173.00;5032279;28;20987;-73
2020/12/02 06:02:58;;;;;;;22.53;12.97;;;5.00;92.30;;;4.53;86.01;98166.06;5033653;28;20671;-73
2020/12/02 06:05:28;;;;;;;22.00;12.50;;;5.00;92.00;;;4.57;85.27;98165.06;5035865;28;20629;-73
2020/12/02 06:08:01;;;;;;;21.10;12.33;;;5.00;92.00;;;4.63;85.27;98163.94;5035594;28;20632;-73
2020/12/02 06:10:55;;;;;;;19.30;11.23;;;5.10;92.10;;;4.66;86.07;98162.06;5045317;28;20641;-73
2020/12/02 06:13:38;;;;;;;18.67;11.33;;;5.10;92.10;;;4.65;85.18;98156.97;5026533;28;20672;-73
2020/12/02 06:16:07;;;;;;;19.40;11.30;;;5.10;91.80;;;4.65;84.93;98159.56;5052730;28;20660;-72
2020/12/02 06:18:36;;;;;;;18.80;11.83;;;5.10;91.80;;;4.64;84.85;98158.69;5034023;28;20660;-74
2020/12/02 06:21:07;;;;;;;17.83;11.30;;;5.10;91.80;;;4.69;85.99;98156.72;5033524;28;20695;-74
2020/12/02 06:23:40;;;;;;;19.70;12.13;;;5.20;91.80;;;4.68;84.96;98167.16;5047939;28;20680;-73
2020/12/02 06:26:08;;;;;;;19.57;12.40;;;5.20;91.70;;;4.68;84.81;98171.41;5035277;28;20633;-73
2020/12/02 06:28:47;;;;;;;20.77;12.47;;;5.20;91.50;;;4.63;84.75;98169.09;5070992;28;20643;-73
2020/12/02 06:31:26;;;;;;;24.40;15.77;;;5.10;91.30;;;4.58;85.31;98169.28;5045022;28;20645;-74
2020/12/02 06:33:57;;;;;;;27.13;17.37;;;5.10;91.30;;;4.45;84.87;98165.59;5045092;28;20616;-74
2020/12/02 06:36:29;;;;;;;21.00;11.87;;;5.00;91.30;;;4.28;84.76;98157.72;5048946;28;21202;-70
2020/12/02 06:39:15;;;;;;;19.37;12.10;;;4.80;91.40;;;4.22;85.30;98164.88;5031410;28;21181;-75
2020/12/02 06:41:44;;;;;;;20.87;12.43;;;4.80;91.70;;;4.20;85.21;98150.38;5068699;28;20723;-76
2020/12/02 06:44:59;;;;;;;22.60;12.40;;;4.70;91.80;;;4.03;85.92;98145.06;5042010;28;20621;-74
2020/12/02 06:47:28;;;;;;;21.97;13.10;;;4.60;91.80;;;3.81;86.87;98149.44;5032869;28;21023;-73
2020/12/02 06:50:09;;;;;;;19.73;12.07;;;4.40;92.20;;;3.82;87.79;98151.97;5040531;28;20624;-74
2020/12/02 06:52:37;;;;;;;16.77;9.97;;;4.40;92.60;;;3.84;86.59;98147.56;5042152;28;21013;-74
2020/12/02 06:55:19;;;;;;;20.27;11.80;;;4.30;92.50;;;3.90;87.02;98149.06;5055062;28;21026;-74
2020/12/02 06:57:47;;;;;;;15.80;9.60;;;4.40;92.60;;;3.92;86.32;98149.84;5040250;28;20710;-73
2020/12/02 07:00:24;;;;;;;14.70;9.10;;;4.40;92.40;;;3.92;85.76;98142.09;5049661;28;20692;-75
2020/12/02 07:02:59;;;;;;;15.07;8.33;;;4.40;92.10;;;3.98;85.69;98144.41;5037402;28;20630;-73
2020/12/02 07:05:34;;;;;;;16.40;10.33;;;4.40;92.10;;;3.90;85.94;98143.91;5046429;28;21577;-72
2020/12/02 07:08:11;;;;;;;18.50;10.97;;;4.40;92.10;;;3.77;86.58;98140.16;5030857;28;20719;-73
2020/12/02 07:10:41;;;;;;;19.80;11.07;;;4.30;92.20;;;3.71;87.42;98148.13;5018114;28;20637;-73
2020/12/02 07:13:15;;;;;;;19.50;11.50;;;4.30;92.40;;;3.71;87.21;98153.28;5032469;28;20716;-73
2020/12/02 07:15:44;;;;;;;20.37;12.63;;;4.20;92.60;;;3.63;87.82;98150.19;5033027;28;21088;-73
2020/12/02 07:18:14;;;;;;;21.27;11.60;;;4.20;92.80;;;3.46;88.00;98152.59;5035876;28;20646;-74
2020/12/02 07:20:48;;;;;;;18.43;11.77;;;4.10;93.10;;;3.41;87.96;98163.97;5037153;28;21024;-74
2020/12/02 07:23:20;;;;;;;23.33;13.03;;;4.00;93.20;;;3.39;88.64;98171.78;5034300;28;20641;-73
2020/12/02 07:25:48;;;;;;;22.83;11.20;;;3.90;93.30;;;3.43;88.42;98180.25;5033903;28;20695;-73
2020/12/02 07:28:20;;;;;;;22.80;13.70;;;3.90;93.30;;;3.39;88.92;98176.94;5033262;28;21139;-73
2020/12/02 07:30:50;;;;;;;19.93;12.10;;;3.90;93.50;;;3.46;88.48;98182.69;5051312;28;20682;-73
2020/12/02 07:33:23;;;;;;;22.00;12.67;;;3.90;93.80;;;3.45;88.14;98171.53;5050491;28;20613;-74
2020/12/02 07:36:13;;;;;;;25.33;14.13;;;3.90;93.30;;;3.46;88.82;98178.38;5034558;28;20618;-74
2020/12/02 07:38:41;;;;;;;25.40;14.17;;;4.00;93.40;;;3.51;88.14;98181.59;5035204;28;20656;-74
2020/12/02 07:41:17;;;;;;;22.47;12.70;;;4.00;93.40;;;3.57;87.07;98178.78;5039090;28;20628;-73
2020/12/02 07:43:49;;;;;;;21.97;12.93;;;4.10;93.40;;;3.68;86.50;98174.03;5034763;28;20751;-72
2020/12/02 07:46:21;;;;;;;21.10;12.40;;;4.10;93.00;;;3.73;86.76;98179.88;5043008;28;20637;-70
2020/12/02 07:48:52;;;;;;;26.30;14.37;;;4.20;93.00;;;3.75;87.80;98176.31;5035561;28;20637;-71
2020/12/02 07:51:23;;;;;;;23.07;13.10;;;4.20;93.00;;;3.82;87.25;98176.91;5036451;28;20636;-70
2020/12/02 07:54:02;;;;;;;19.63;11.70;;;4.30;93.50;;;3.76;86.84;98184.91;5035362;28;21152;-72
2020/12/02 07:56:35;;;;;;;18.80;10.70;;;4.20;92.60;;;3.81;86.54;98180.38;5024130;28;20680;-72
2020/12/02 07:59:13;;;;;;;17.30;9.77;;;4.30;92.40;;;3.84;85.64;98180.28;5023920;28;20625;-72
2020/12/02 08:02:08;;;;;;;16.30;9.70;;;4.30;92.10;;;3.91;84.87;98176.50;5032293;28;20702;-72
2020/12/02 08:04:43;;;;;;;17.67;10.43;;;4.40;91.90;;;3.89;84.88;98176.63;5025380;28;21180;-72
2020/12/02 08:07:14;;;;;;;18.00;9.47;;;4.30;91.30;;;3.93;84.37;98167.81;5020525;28;20632;-72
2020/12/02 08:09:45;;;;;;;17.70;8.87;;;4.40;90.90;;;3.98;84.14;98173.63;5048477;28;20598;-72
2020/12/02 08:12:17;;;;;;;16.03;8.90;;;4.50;91.50;;;4.03;83.02;98161.41;5027733;28;20628;-71
2020/12/02 08:14:48;;;;;;;16.80;9.87;;;4.50;91.00;;;4.05;82.92;98167.31;5032494;28;20640;-72
2020/12/02 08:17:20;;;;;;;24.00;12.10;;;4.50;90.70;;;4.14;83.71;98166.13;5028034;28;20660;-72
2020/12/02 08:19:52;;;;;;;23.70;13.23;;;4.60;91.00;;;4.23;83.78;98167.38;5034845;28;20628;-72
2020/12/02 08:22:37;;;;;;;22.40;12.00;;;4.70;91.20;;;4.29;85.07;98177.44;5037938;28;20634;-72
2020/12/02 08:25:21;;;;;;;24.70;12.00;;;4.70;91.30;;;4.38;84.19;98174.47;5031234;28;21175;-72
2020/12/02 08:27:51;;;;;;;22.67;12.97;;;4.80;91.40;;;4.44;84.62;98174.22;5028957;28;20645;-72
2020/12/02 08:30:23;;;;;;;24.70;14.83;;;4.90;91.30;;;4.45;84.29;98178.50;5027029;28;20633;-72
2020/12/02 08:32:58;;;;;;;20.97;12.60;;;4.90;91.30;;;4.47;84.73;98175.84;5026840;28;21238;-72
2020/12/02 08:35:33;;;;;;;26.37;14.00;;;4.90;91.30;;;4.52;84.29;98172.13;5014823;28;20630;-72
2020/12/02 08:38:01;;;;;;;24.70;12.60;;;4.90;91.50;;;4.57;85.36;98169.34;5026160;28;20668;-72
2020/12/02 08:40:41;;;;;;;25.70;14.63;;;5.00;91.50;;;4.60;85.22;98172.66;5033430;28;20621;-73
2020/12/02 08:43:31;;;;;;;25.30;14.10;;;5.00;91.50;;;4.64;84.33;98176.78;5034536;28;20642;-72
2020/12/02 08:46:21;;;;;;;25.57;15.07;;;5.10;91.30;;;4.59;84.48;98173.56;5026127;28;20630;-72
2020/12/02 08:48:52;;;;;;;28.93;16.13;;;5.00;91.10;;;4.63;84.55;98172.53;5035236;28;20636;-72
2020/12/02 08:51:23;;;;;;;27.30;16.40;;;5.10;91.20;;;4.70;84.05;98171.34;5033165;28;20622;-73
2020/12/02 08:53:51;;;;;;;24.57;14.30;;;5.10;91.10;;;4.76;83.75;98178.81;5035431;28;20636;-72
2020/12/02 08:56:35;;;;;;;23.03;14.20;;;5.20;91.00;;;4.80;83.20;98177.78;5045774;28;20696;-73
2020/12/02 08:59:05;;;;;;;28.47;16.00;;;5.20;90.80;;;4.77;83.57;98178.75;5032538;28;20664;-73
2020/12/02 09:01:33;;;;;;;23.50;13.30;;;5.20;90.50;;;4.81;82.80;98174.28;5028410;28;20660;-73
2020/12/02 09:04:01;;;;;;;22.67;12.47;;;5.30;90.40;;;4.83;83.30;98172.47;5042029;28;20966;-73
2020/12/02 09:06:29;;;;;;;24.10;13.73;;;5.30;90.20;;;4.80;83.09;98170.88;5046149;28;21473;-74
2020/12/02 09:08:57;;;;;;;24.30;13.97;;;5.30;90.10;;;4.72;81.42;98164.34;5037017;28;20652;-73
2020/12/02 09:11:28;;;;;;;25.83;13.77;;;5.20;89.20;;;4.65;82.09;98162.97;5032105;28;20638;-73
2020/12/02 09:13:58;;;;;;;22.80;12.80;;;5.20;89.60;;;4.60;81.29;98151.16;5041586;28;20628;-73
2020/12/02 09:16:30;;;;;;;23.70;13.30;;;5.10;88.90;;;4.50;82.28;98158.47;5031619;28;20660;-75
2020/12/02 09:18:58;;;;;;;27.20;14.43;;;5.00;88.80;;;4.45;82.07;98155.25;5034996;28;20679;-76
2020/12/02 09:21:28;;;;;;;23.73;12.83;;;5.00;88.90;;;4.44;83.11;98147.56;5032119;28;20618;-75
2020/12/02 09:23:57;;;;;;;25.03;13.90;;;4.90;89.20;;;4.43;82.07;98148.47;5031813;28;20633;-76
2020/12/02 09:26:28;;;;;;;29.20;15.50;;;4.90;89.70;;;4.43;82.79;98141.56;5030712;28;20661;-76
2020/12/02 09:28:58;;;;;;;21.77;12.20;;;4.90;90.10;;;4.44;81.76;98143.25;5032518;28;20644;-76
2020/12/02 09:31:29;;;;;;;26.97;13.07;;;4.90;89.60;;;4.38;82.78;98140.94;5038737;28;20614;-76
2020/12/02 09:33:57;;;;;;;27.37;14.00;;;4.90;89.40;;;4.34;82.76;98141.94;5035057;28;20730;-76
2020/12/02 09:36:26;;;;;;;25.43;13.17;;;4.90;89.70;;;4.46;82.52;98131.09;5040167;28;20995;-77
2020/12/02 09:38:54;;;;;;;24.90;12.50;;;5.00;90.50;;;4.51;82.84;98131.75;5031208;28;20653;-75
2020/12/02 09:41:40;;;;;;;22.93;12.57;;;4.90;90.10;;;4.56;82.28;98127.22;5047209;28;20612;-79
2020/12/02 09:44:27;;;;;;;25.47;13.13;;;5.00;90.10;;;4.50;82.19;98131.81;5041597;28;21187;-75
2020/12/02 09:46:58;;;;;;;25.10;12.23;;;5.00;88.90;;;4.49;81.66;98120.63;5027226;28;20617;-75
2020/12/02 09:49:25;;;;;;;21.50;11.87;;;5.00;89.10;;;4.52;83.06;98117.09;5045003;28;21192;-75
2020/12/02 09:52:05;;;;;;;25.33;13.30;;;5.00;89.40;;;4.53;81.93;98116.19;5042356;28;20641;-76
2020/12/02 09:54:39;;;;;;;26.30;13.47;;;5.00;89.50;;;4.62;82.19;98113.22;5033381;28;20637;-76
2020/12/02 09:57:16;;;;;;;28.20;13.40;;;5.10;89.70;;;4.67;82.03;98119.00;5041124;28;20613;-75
2020/12/02 09:59:46;;;;;;;22.77;11.83;;;5.10;89.30;;;4.70;81.71;98114.53;5039968;28;21132;-76
2020/12/02 10:02:44;;;;;;;24.90;12.47;;;5.10;89.20;;;4.77;82.30;98108.19;5042756;28;20620;-76
2020/12/02 10:05:42;;;;;;;24.77;12.63;;;5.20;89.00;;;4.81;82.24;98099.38;5027490;28;20621;-74
2020/12/02 10:08:20;;;;;;;23.73;12.80;;;5.30;88.80;;;4.86;80.95;98105.19;5032589;28;20636;-76
2020/12/02 10:10:57;;;;;;;25.40;12.40;;;5.30;88.50;;;4.94;82.29;98092.75;5032218;28;20629;-75
2020/12/02 10:13:59;;;;;;;23.47;13.10;;;5.30;88.50;;;4.98;81.59;98089.13;5039852;28;20615;-76
2020/12/02 10:16:37;;;;;;;25.83;13.23;;;5.40;88.10;;;5.05;81.52;98078.44;5032323;28;20651;-72
2020/12/02 10:19:34;;;;;;;32.43;14.60;;;5.50;88.30;;;5.12;81.54;98078.97;5028925;28;20633;-73
2020/12/02 10:22:29;;;;;;;22.70;11.73;;;5.50;88.40;;;5.12;80.14;98074.63;5012478;28;20598;-74
2020/12/02 10:25:29;;;;;;;23.00;12.77;;;5.60;88.00;;;5.14;80.81;98068.50;5040575;28;20716;-74
2020/12/02 10:28:12;;;;;;;28.43;15.27;;;5.60;86.60;;;5.15;80.46;98059.81;5053520;28;21163;-73
2020/12/02 10:30:51;;;;;;;28.90;14.20;;;5.60;86.60;;;5.15;79.75;98052.06;5027476;28;21540;-73
2020/12/02 10:33:50;;;;;;;30.67;16.10;;;5.60;85.80;;;5.15;80.32;98057.22;5030239;28;20680;-72
2020/12/02 10:36:20;;;;;;;25.97;13.20;;;5.60;85.80;;;5.18;79.53;98049.31;5009708;28;20615;-73
2020/12/02 10:38:54;;;;;;;24.93;13.27;;;5.70;86.10;;;5.20;80.14;98034.59;5029947;28;20658;-73
2020/12/02 10:41:37;;;;;;;23.73;11.73;;;5.70;86.00;;;5.22;79.87;98035.34;5037518;28;20722;-72
2020/12/02 10:44:27;;;;;;;26.20;14.47;;;5.70;86.00;;;5.22;80.68;98035.34;5046014;28;20632;-72
2020/12/02 10:47:44;;;;;;;24.93;13.77;;;5.70;86.50;;;5.21;80.25;98033.66;5032002;28;20637;-73